Bethel Airport Bethel US
ICAO: PABE
IATA:
Category: Medium
Scheduled Services:

Elevation: 126 ft
TransAlt. 18000 ft.

Airport Communications:
ATIS:119.8
ANCHORAGE CNTR:125.2
CTAF/BETHEL WX:118.7
KENAI RDO:122.65
GND:121.7
TWEB:114.1
NG OPS:124.65
TWR:118.7

PABE Zoom In..

If you have problems with the map follow the link
https://www.worldairports.se/pages/airport.php?
ICAO=PABE

Runways:

(A) RW 01L length 6400 ft width 150 ft
---- / hdg 9

(B) RW 01R length 4000 ft width 75 ft
---- / hdg 10

(C) RW 12 length 1858 ft width 75 ft
---- / hdg 114

(D) RW 19L length 4000 ft width 75 ft
---- / hdg 190

(E) RW 19R length 6400 ft width 150 ft
ILS 111.50 / hdg 189

(F) RW 30 length 1858 ft width 75 ft
---- / hdg 294

Location; PABE
Day. 18 / Time. 05.53 Zulu
* Altimeter: 29.50
* Temperature: 07° c. 44.6°f.
* Wind from: 020° Speed 04 kn.
Dewpoint: 06° c.
Visibility: 10 Statute Miles.
Clouds: Few 3200 ft.
Clouds: Broken 5000 ft.
Clouds: Overcast 7500 ft.
Conditions: Light Rain.

PABE 180553Z 02004KT 10SM -RA FEW032 BKN050 OVC075 07/06 A2950 RMK AO2 RAE03B13E24B49 SLP990 P0000 60002 T00670061 10100 20067 52012


Wind From 020°
Speed 04 kn.

 
 
jpsmedia.com for Web Design worldairports.se 2018   terms of use